Time;durP1;ratioP1;P1;durP2;ratioP2;P2;SDS_P1;SDS_P2;PMS_P1;PMS_P2;Temp;Humidity;BMP_temperature;BMP_pressure;BME280_temperature;BME280_humidity;BME280_pressure;Samples;Min_cycle;Max_cycle;Signal;HPM_P1;HPM_P2
2023/06/30 00:04:58;;;;;;;6.13;5.35;;;20.60;99.90;;;21.53;65.01;97502.19;10358608;28;20233;-64
2023/06/30 00:10:01;;;;;;;6.20;5.68;;;20.60;99.90;;;21.51;64.98;97503.03;10353560;28;20504;-65
2023/06/30 00:15:07;;;;;;;6.25;5.75;;;20.60;99.90;;;21.51;64.98;97505.63;10358837;28;20253;-65
2023/06/30 00:20:11;;;;;;;5.80;5.32;;;20.50;99.90;;;21.46;65.52;97499.50;10359917;28;20630;-65
2023/06/30 00:25:15;;;;;;;6.35;5.85;;;20.40;99.90;;;21.35;66.09;97497.66;10359967;28;20238;-65
2023/06/30 00:30:19;;;;;;;6.25;5.72;;;20.40;99.90;;;21.28;66.71;97495.84;10357767;28;20674;-65
2023/06/30 00:35:22;;;;;;;6.30;5.75;;;20.30;99.90;;;21.13;65.85;97485.31;10361362;28;20237;-65
2023/06/30 00:40:25;;;;;;;6.30;5.90;;;20.20;99.90;;;;;;10355269;28;20234;-65
2023/06/30 00:45:30;;;;;;;6.47;5.97;;;20.10;99.90;;;20.93;66.62;97472.16;10358586;28;20242;-65
2023/06/30 00:50:33;;;;;;;6.00;5.45;;;20.00;99.90;;;20.91;66.52;97463.44;10358107;28;20222;-65
2023/06/30 00:55:36;;;;;;;6.47;5.88;;;19.90;99.90;;;20.85;67.36;97453.00;10354047;28;20237;-65
2023/06/30 01:00:41;;;;;;;6.38;5.88;;;19.90;99.90;;;20.75;67.66;97446.00;10355343;28;20237;-65
2023/06/30 01:05:50;;;;;;;6.80;6.20;;;19.80;99.90;;;20.63;68.45;97445.00;10355328;28;20721;-65
2023/06/30 01:10:54;;;;;;;6.88;6.28;;;19.70;99.90;;;20.53;69.09;97437.97;10349477;28;20249;-66
2023/06/30 01:16:00;;;;;;;6.53;6.03;;;19.60;99.90;;;20.53;69.91;97440.56;10351625;28;20234;-66
2023/06/30 01:21:04;;;;;;;6.22;5.68;;;19.60;99.90;;;20.40;70.30;97447.31;10352271;28;20222;-65
2023/06/30 01:26:08;;;;;;;7.50;6.90;;;19.50;99.90;;;20.32;70.67;97440.28;10349424;28;20910;-65
2023/06/30 01:31:13;;;;;;;6.78;6.38;;;19.30;99.90;;;20.32;70.72;97429.91;10353037;28;20621;-64
2023/06/30 01:36:16;;;;;;;6.93;6.43;;;19.40;99.90;;;20.33;71.08;97416.06;10355485;28;20325;-65
2023/06/30 01:41:21;;;;;;;7.28;6.60;;;19.40;99.90;;;20.20;71.18;97415.94;10355040;28;20226;-65
2023/06/30 01:46:27;;;;;;;6.78;6.18;;;19.20;99.90;;;20.11;71.40;97420.13;10348382;28;20230;-65
2023/06/30 01:51:30;;;;;;;7.70;6.78;;;19.20;99.90;;;20.11;71.58;97404.56;10351900;28;20524;-65
2023/06/30 01:56:35;;;;;;;7.13;6.53;;;19.20;99.90;;;20.13;71.62;97410.63;10356932;28;20229;-65
2023/06/30 02:01:39;;;;;;;7.68;7.00;;;19.20;99.90;;;20.08;72.17;97418.34;10353177;28;20233;-63
2023/06/30 02:06:43;;;;;;;6.90;6.40;;;19.20;99.90;;;20.05;72.39;97409.66;10357457;28;20284;-64
2023/06/30 02:11:46;;;;;;;6.53;6.03;;;19.10;99.90;;;20.05;72.67;97405.34;10399437;23;20225;-63
2023/06/30 02:16:51;;;;;;;7.03;6.47;;;19.00;99.90;;;19.92;73.00;97406.94;10397078;28;20224;-64
2023/06/30 02:21:54;;;;;;;7.38;6.78;;;18.90;99.90;;;19.87;73.26;97410.31;10376781;28;20720;-64
2023/06/30 02:26:57;;;;;;;7.05;6.40;;;18.90;99.90;;;19.89;73.53;97413.81;10359503;28;20230;-63
2023/06/30 02:32:02;;;;;;;7.68;7.03;;;18.90;99.90;;;19.71;74.08;97404.03;10364669;28;20792;-63
2023/06/30 02:37:05;;;;;;;7.65;6.97;;;18.80;99.90;;;19.67;74.31;97407.44;10362340;28;20694;-64
2023/06/30 02:42:08;;;;;;;7.80;7.15;;;18.70;99.90;;;19.59;74.58;97415.06;10360539;28;20226;-64
2023/06/30 02:47:13;;;;;;;7.47;6.88;;;18.60;99.90;;;19.58;74.74;97419.41;10360773;28;20720;-68
2023/06/30 02:52:16;;;;;;;7.90;7.20;;;18.70;99.90;;;19.59;74.82;97415.94;10374460;28;20260;-63
2023/06/30 02:57:21;;;;;;;7.50;6.90;;;18.70;99.90;;;19.69;74.40;97405.75;10366154;28;20226;-64
2023/06/30 03:02:26;;;;;;;7.20;6.70;;;18.70;99.90;;;19.68;74.63;97410.06;10370936;28;20238;-64
2023/06/30 03:07:29;;;;;;;8.30;7.60;;;18.70;99.90;;;19.72;74.35;97405.81;10369165;28;20807;-64
2023/06/30 03:12:33;;;;;;;6.93;6.43;;;18.70;99.90;;;19.64;74.30;97412.56;10357047;28;20219;-63
2023/06/30 03:17:37;;;;;;;7.57;6.88;;;18.70;99.90;;;19.49;74.97;97397.66;10356916;28;20741;-63
2023/06/30 03:22:41;;;;;;;8.07;7.38;;;18.60;99.90;;;19.62;74.68;97403.88;10356041;28;20233;-63
2023/06/30 03:27:44;;;;;;;7.70;7.10;;;18.80;99.90;;;19.52;75.16;97400.31;10353571;28;20710;-63
2023/06/30 03:32:49;;;;;;;8.43;7.72;;;18.60;99.90;;;19.64;75.23;97405.66;10359340;28;20230;-63
2023/06/30 03:37:52;;;;;;;8.27;7.60;;;18.60;99.90;;;19.45;75.88;97395.84;10363033;28;20265;-64
2023/06/30 03:42:55;;;;;;;8.85;8.05;;;18.60;99.90;;;19.56;75.26;97394.28;10359109;28;20226;-64
2023/06/30 03:47:59;;;;;;;7.80;7.20;;;18.60;99.90;;;19.36;76.30;97387.09;10357522;28;20231;-64
2023/06/30 03:53:03;;;;;;;7.50;6.85;;;18.50;99.90;;;19.44;76.17;97378.56;10361422;28;20306;-64
2023/06/30 03:58:06;;;;;;;8.52;7.65;;;18.60;99.90;;;19.58;75.70;97377.91;10355488;28;20294;-65
2023/06/30 04:03:10;;;;;;;8.13;7.53;;;18.60;99.90;;;19.53;75.86;97378.69;10359248;28;20226;-64
2023/06/30 04:08:14;;;;;;;8.38;7.78;;;18.70;99.90;;;19.51;75.90;97382.97;10356303;28;20265;-64
2023/06/30 04:13:17;;;;;;;8.05;7.38;;;18.60;99.90;;;19.63;75.86;97380.59;10354882;28;20258;-64
2023/06/30 04:18:22;;;;;;;8.50;7.80;;;18.80;99.90;;;19.75;75.53;97370.41;10365193;28;20249;-64
2023/06/30 04:23:25;;;;;;;9.07;8.38;;;18.90;99.90;;;19.85;75.17;97367.91;10361997;28;20236;-63
2023/06/30 04:28:28;;;;;;;9.70;9.00;;;19.00;99.90;;;19.89;75.18;97369.72;10359556;28;20715;-63
2023/06/30 04:33:34;;;;;;;9.20;8.48;;;19.00;99.90;;;19.95;75.20;97367.19;10362726;28;20616;-64
2023/06/30 04:38:37;;;;;;;9.23;8.52;;;19.10;99.90;;;20.14;74.53;97376.91;10358654;28;20317;-64
2023/06/30 04:43:41;;;;;;;8.77;7.95;;;19.30;99.90;;;20.32;73.76;97372.81;10358969;28;20226;-64
2023/06/30 04:48:45;;;;;;;9.27;8.48;;;19.40;99.90;;;20.29;73.77;97372.75;10347120;28;20243;-64
2023/06/30 04:53:49;;;;;;;9.18;8.57;;;19.30;99.90;;;20.37;73.32;97365.91;10352751;28;20232;-67
2023/06/30 04:58:52;;;;;;;9.48;8.65;;;19.30;99.90;;;20.34;73.63;97365.88;10349724;28;20239;-64
2023/06/30 05:03:57;;;;;;;9.43;8.57;;;19.30;99.90;;;20.32;73.99;97360.69;10359132;28;20253;-65
2023/06/30 05:09:00;;;;;;;9.90;9.10;;;19.40;99.90;;;20.48;73.65;97375.53;10357629;28;20227;-65
2023/06/30 05:14:03;;;;;;;8.73;8.13;;;19.60;99.90;;;20.64;73.19;97366.22;10355249;28;20263;-65
2023/06/30 05:19:07;;;;;;;9.38;8.68;;;19.70;99.90;;;20.87;72.16;97378.56;10353153;28;20573;-65
2023/06/30 05:24:11;;;;;;;9.13;8.40;;;19.80;99.90;;;21.08;71.38;97383.03;10359199;28;20240;-64
2023/06/30 05:29:14;;;;;;;9.00;8.20;;;20.00;99.90;;;21.18;70.80;97392.66;10359020;28;20317;-65
2023/06/30 05:34:18;;;;;;;10.50;8.32;;;20.00;99.90;;;21.07;71.16;97392.56;10362584;28;20226;-65
2023/06/30 05:39:22;;;;;;;9.10;8.30;;;20.00;99.90;;;21.16;71.45;97391.78;10362619;28;20230;-64
2023/06/30 05:44:25;;;;;;;9.63;8.73;;;20.10;99.90;;;21.12;71.28;97393.50;10360699;28;20233;-65
2023/06/30 05:49:29;;;;;;;8.63;7.93;;;20.10;99.90;;;21.11;71.49;97404.72;10341317;28;20284;-65
2023/06/30 05:54:32;;;;;;;8.70;7.93;;;20.20;99.90;;;21.27;71.03;97413.53;10354728;28;20222;-65
2023/06/30 05:59:36;;;;;;;9.55;8.43;;;20.20;99.90;;;21.34;71.17;97415.31;10347471;28;20736;-64
2023/06/30 06:04:40;;;;;;;8.98;8.15;;;20.40;99.90;;;21.54;70.69;97420.69;10347742;28;20226;-65
2023/06/30 06:09:43;;;;;;;9.18;8.32;;;20.50;99.90;;;21.58;70.48;97422.44;10352743;28;20603;-66
2023/06/30 06:14:47;;;;;;;10.00;9.10;;;20.60;99.90;;;21.74;70.24;97427.75;10350088;28;20215;-66
2023/06/30 06:19:53;;;;;;;10.40;9.40;;;20.70;99.90;;;21.90;70.69;97423.50;10359670;28;20238;-66
2023/06/30 06:24:56;;;;;;;10.07;9.15;;;21.00;99.90;;;22.22;69.43;97431.50;10353338;28;20230;-65
2023/06/30 06:29:59;;;;;;;9.65;8.65;;;21.30;99.90;;;22.43;68.47;97436.78;10356060;28;20253;-66
2023/06/30 06:35:05;;;;;;;10.32;9.23;;;21.40;99.90;;;22.32;68.57;97440.19;10354494;28;20222;-66
2023/06/30 06:40:09;;;;;;;9.07;8.00;;;21.30;99.90;;;22.26;68.64;97441.03;10348234;28;20238;-66
2023/06/30 06:45:13;;;;;;;8.80;8.00;;;21.30;99.90;;;22.32;69.03;97448.91;10356388;28;20513;-66
2023/06/30 06:50:17;;;;;;;10.02;9.13;;;21.30;99.90;;;22.19;70.71;97457.50;10340170;28;20594;-66
2023/06/30 06:55:20;;;;;;;9.40;8.45;;;21.20;99.90;;;22.17;73.94;97462.69;10349682;28;20227;-66
2023/06/30 07:00:24;;;;;;;10.18;9.18;;;21.00;99.90;;;21.69;77.93;97463.25;10345751;28;20939;-66
2023/06/30 07:05:31;;;;;;;11.18;10.02;;;20.50;99.90;;;21.25;83.82;97466.38;10350467;28;20222;-66
2023/06/30 07:10:34;;;;;;;11.55;10.55;;;20.10;99.90;;;20.89;88.79;97462.59;10345082;28;20614;-67
2023/06/30 07:15:37;;;;;;;10.65;9.75;;;19.60;99.90;;;20.30;92.36;97474.00;10351440;28;20245;-65
2023/06/30 07:20:42;;;;;;;12.07;10.77;;;19.40;99.90;;;19.78;96.31;97474.19;10349428;28;20234;-65
2023/06/30 07:25:46;;;;;;;12.52;11.50;;;19.10;99.90;;;19.54;99.74;97481.53;10349274;28;20227;-66
2023/06/30 07:30:49;;;;;;;14.05;12.68;;;18.90;99.90;;;19.34;100.00;97482.13;10347305;28;20238;-65
2023/06/30 07:35:54;;;;;;;13.98;12.52;;;18.70;99.90;;;19.22;100.00;97479.31;10347357;28;20260;-66
2023/06/30 07:40:58;;;;;;;18.60;16.98;;;18.60;99.90;;;19.22;100.00;97476.72;10350471;28;20226;-66
2023/06/30 07:46:02;;;;;;;20.08;18.17;;;18.60;99.90;;;19.16;100.00;97486.97;10360210;28;20313;-66
2023/06/30 07:51:07;;;;;;;18.58;16.88;;;18.50;99.90;;;19.16;100.00;97486.97;10356889;28;20233;-66
2023/06/30 07:56:12;;;;;;;19.52;17.83;;;18.50;99.90;;;19.29;100.00;97499.31;10362462;28;20649;-66
2023/06/30 08:01:15;;;;;;;19.05;17.17;;;18.60;99.90;;;19.39;100.00;97504.63;10366804;28;20241;-66
2023/06/30 08:06:19;;;;;;;19.58;17.85;;;18.70;99.90;;;19.44;100.00;97498.69;10357802;28;20237;-66
2023/06/30 08:11:22;;;;;;;17.80;16.20;;;18.70;99.90;;;19.36;100.00;97501.13;10398382;22;20230;-67
2023/06/30 08:16:26;;;;;;;20.50;18.67;;;18.80;99.90;;;19.44;100.00;97497.81;10398293;28;20218;-67
2023/06/30 08:21:31;;;;;;;20.73;18.77;;;18.90;99.90;;;19.62;100.00;97503.28;10392145;28;20653;-67
2023/06/30 08:26:34;;;;;;;20.67;18.70;;;19.00;99.90;;;19.64;100.00;97517.16;10399287;28;20230;-67
2023/06/30 08:31:37;;;;;;;22.40;20.27;;;19.10;99.90;;;19.76;100.00;97517.38;10391889;28;20238;-67
2023/06/30 08:36:42;;;;;;;19.90;18.00;;;19.10;99.90;;;19.76;100.00;97514.78;10394611;28;20279;-67
2023/06/30 08:41:46;;;;;;;19.92;18.05;;;19.10;99.90;;;19.78;100.00;97522.59;10391669;28;20236;-67
2023/06/30 08:46:51;;;;;;;22.15;19.67;;;19.20;99.90;;;19.83;100.00;97538.19;10392292;28;20229;-67
2023/06/30 08:51:57;;;;;;;69.47;64.93;;;19.30;99.90;;;19.92;100.00;97533.19;10385010;28;20236;-68
2023/06/30 08:57:03;;;;;;;19.42;17.50;;;19.30;99.90;;;19.87;100.00;97545.19;10391854;28;20241;-67
2023/06/30 09:02:07;;;;;;;20.95;18.75;;;19.30;99.90;;;19.91;100.00;97531.41;10390637;28;20244;-67
2023/06/30 09:07:22;;;;;;;19.02;16.85;;;19.30;99.90;;;19.92;100.00;97534.03;10387042;28;20231;-67
2023/06/30 09:12:27;;;;;;;18.58;16.80;;;19.20;99.90;;;19.80;100.00;97528.66;10383285;28;20237;-68
2023/06/30 09:17:31;;;;;;;18.70;16.70;;;19.20;99.90;;;19.75;100.00;97535.50;10386362;28;20237;-68
2023/06/30 09:22:37;;;;;;;19.10;17.20;;;19.20;99.90;;;19.74;100.00;97542.44;10388045;28;20697;-68
2023/06/30 09:27:58;;;;;;;19.65;17.67;;;19.20;99.90;;;19.90;100.00;97550.44;10387153;28;20226;-68
2023/06/30 09:33:01;;;;;;;20.40;18.30;;;19.30;99.90;;;19.85;100.00;97531.34;10390241;28;20233;-68
2023/06/30 09:38:10;;;;;;;21.00;19.00;;;19.20;99.90;;;19.96;100.00;97533.22;10392510;28;20885;-68
2023/06/30 09:43:18;;;;;;;19.80;17.90;;;19.40;99.90;;;20.06;100.00;97529.06;10393314;28;20697;-68
2023/06/30 09:48:21;;;;;;;20.05;16.92;;;19.50;99.90;;;20.23;100.00;97519.78;10384127;28;20264;-68
2023/06/30 09:53:28;;;;;;;20.25;18.25;;;19.60;99.90;;;20.21;100.00;97505.03;10385917;28;20701;-68
2023/06/30 09:58:32;;;;;;;19.52;17.50;;;19.60;99.90;;;20.35;100.00;97513.88;10382582;28;20225;-68
2023/06/30 10:03:36;;;;;;;22.20;19.30;;;19.80;99.90;;;20.51;100.00;97509.75;10383651;28;20760;-68
2023/06/30 10:08:41;;;;;;;21.40;19.27;;;19.90;99.90;;;20.59;100.00;97497.75;10388809;28;20248;-68
2023/06/30 10:13:47;;;;;;;21.80;19.67;;;20.00;99.90;;;20.84;100.00;97498.03;10381541;28;20425;-69
2023/06/30 10:18:51;;;;;;;21.27;19.08;;;20.10;99.90;;;20.83;100.00;97491.06;10395639;28;20222;-68
2023/06/30 10:23:56;;;;;;;23.17;20.88;;;20.20;99.90;;;20.89;100.00;97489.44;10383370;28;20221;-68
2023/06/30 10:29:00;;;;;;;24.15;21.67;;;20.30;99.90;;;20.96;100.00;97490.34;10380046;28;20233;-68
2023/06/30 10:34:05;;;;;;;20.50;18.63;;;20.30;99.90;;;21.03;100.00;97483.50;10382019;28;20336;-68
2023/06/30 10:39:11;;;;;;;21.17;19.08;;;20.20;99.90;;;21.06;100.00;97487.00;10391787;28;20234;-68
2023/06/30 10:44:15;;;;;;;23.52;21.13;;;20.30;99.90;;;21.05;100.00;97479.19;10389940;28;20225;-68
2023/06/30 10:49:24;;;;;;;21.50;19.58;;;20.30;99.90;;;20.96;100.00;97484.31;10391972;28;20234;-68
2023/06/30 10:54:30;;;;;;;22.95;20.75;;;20.20;99.90;;;20.85;100.00;97489.38;10387454;28;20613;-69
2023/06/30 10:59:39;;;;;;;22.50;20.45;;;20.10;99.90;;;20.90;100.00;97487.72;10388621;28;20288;-68
2023/06/30 11:04:43;;;;;;;22.45;20.33;;;20.10;99.90;;;20.94;100.00;97494.66;10381126;28;20619;-69
2023/06/30 11:10:02;;;;;;;23.45;21.15;;;20.10;99.90;;;20.83;100.00;97507.56;10384377;28;20641;-68
2023/06/30 11:15:25;;;;;;;21.90;19.80;;;20.00;99.90;;;20.87;100.00;97492.88;10383631;28;20221;-68
2023/06/30 11:20:29;;;;;;;23.02;20.55;;;20.10;99.90;;;21.04;100.00;97491.31;10388265;28;20230;-69
2023/06/30 11:25:35;;;;;;;23.73;21.02;;;20.20;99.90;;;21.31;100.00;97489.81;10383802;28;20225;-68
2023/06/30 11:30:39;;;;;;;24.85;21.75;;;20.40;99.90;;;21.30;100.00;97488.09;10382526;28;20636;-68
2023/06/30 11:35:43;;;;;;;23.98;21.48;;;20.50;99.90;;;21.34;100.00;97482.03;10383131;28;20712;-68
2023/06/30 11:40:49;;;;;;;23.63;19.98;;;20.50;99.90;;;21.32;100.00;97489.84;10380684;28;20270;-68
2023/06/30 11:45:57;;;;;;;21.42;19.23;;;20.40;99.90;;;21.08;100.00;97489.59;10391748;28;20846;-68
2023/06/30 11:51:04;;;;;;;23.08;20.25;;;20.30;99.90;;;21.15;100.00;97494.03;10392915;28;20245;-68
2023/06/30 11:56:09;;;;;;;23.77;21.27;;;20.40;99.90;;;21.47;100.00;97491.72;10400223;28;20236;-68
2023/06/30 12:01:12;;;;;;;24.08;21.48;;;20.60;99.90;;;21.72;100.00;97498.00;10396880;28;20241;-68
2023/06/30 12:06:18;;;;;;;25.48;22.80;;;20.80;99.90;;;21.82;100.00;97498.91;10396968;28;20226;-69
2023/06/30 12:11:23;;;;;;;25.25;22.75;;;20.90;99.90;;;21.83;100.00;97503.25;10398986;28;20247;-68
2023/06/30 12:16:27;;;;;;;24.05;21.50;;;20.80;99.90;;;21.64;100.00;97501.41;10399153;28;20233;-68
2023/06/30 12:21:30;;;;;;;26.05;22.52;;;20.70;99.90;;;21.68;100.00;97500.56;10399898;28;20799;-68
2023/06/30 12:26:34;;;;;;;29.10;25.92;;;20.70;99.90;;;21.65;100.00;97497.94;10399255;28;20226;-67
2023/06/30 12:31:41;;;;;;;29.15;26.15;;;20.70;99.90;;;21.78;100.00;97492.81;10397296;28;20237;-69
2023/06/30 12:36:44;;;;;;;27.40;24.55;;;20.90;99.90;;;21.86;100.00;97485.06;10396726;28;20221;-68
2023/06/30 12:41:49;;;;;;;28.52;25.63;;;20.90;99.90;;;22.07;100.00;97483.47;10394228;28;20498;-68
2023/06/30 12:47:02;;;;;;;27.33;24.60;;;21.00;99.90;;;22.13;100.00;97480.88;10396217;28;20234;-68
2023/06/30 12:52:06;;;;;;;29.80;26.58;;;21.00;99.90;;;22.25;100.00;97467.94;10393686;28;20318;-68
2023/06/30 12:57:10;;;;;;;31.60;28.42;;;21.20;99.90;;;22.54;95.93;97469.81;10393599;28;20716;-68
2023/06/30 13:02:13;;;;;;;32.38;28.98;;;21.40;99.90;;;22.46;97.41;97470.66;10395437;28;20708;-68
2023/06/30 13:07:16;;;;;;;32.95;29.45;;;21.40;99.90;;;22.65;94.13;97468.09;10396874;28;20230;-68
2023/06/30 13:12:25;;;;;;;33.95;30.48;;;21.60;99.90;;;23.05;90.42;97463.88;10396309;28;20742;-68
2023/06/30 13:17:28;;;;;;;34.53;30.98;;;21.90;99.90;;;23.06;91.60;97460.38;10396273;28;20304;-68
2023/06/30 13:22:32;;;;;;;36.42;32.58;;;22.00;99.90;;;22.96;93.84;97473.44;10395800;28;20747;-68
2023/06/30 13:27:38;;;;;;;35.92;32.22;;;22.00;99.90;;;23.07;89.55;97469.09;10397264;28;20233;-68
2023/06/30 13:32:41;;;;;;;36.53;32.65;;;22.10;99.90;;;23.36;91.07;97462.16;10394146;28;20819;-68
2023/06/30 13:37:46;;;;;;;40.20;35.90;;;22.30;99.90;;;23.62;85.27;97461.28;10395813;28;20569;-68
2023/06/30 13:42:50;;;;;;;39.25;35.13;;;22.60;99.90;;;23.44;84.14;97451.72;10389065;28;20226;-67
2023/06/30 13:47:53;;;;;;;39.28;33.90;;;22.50;99.90;;;23.49;85.67;97449.97;10393501;28;20244;-66
2023/06/30 13:52:57;;;;;;;40.10;34.85;;;22.50;99.90;;;23.64;84.06;97446.50;10389866;28;20790;-66
2023/06/30 13:58:01;;;;;;;36.47;32.67;;;22.60;99.90;;;23.78;82.05;97446.50;10401799;28;20237;-67
2023/06/30 14:03:04;;;;;;;35.47;31.75;;;22.80;99.90;;;23.94;79.86;97437.75;10391594;28;20226;-69
2023/06/30 14:08:08;;;;;;;35.22;31.63;;;22.80;99.90;;;24.05;78.88;97432.50;10381778;28;20236;-68
2023/06/30 14:13:12;;;;;;;33.35;29.85;;;22.80;99.90;;;23.96;79.24;97436.00;10379243;28;20226;-67
2023/06/30 14:18:15;;;;;;;34.00;30.45;;;22.80;99.90;;;23.90;78.32;97425.59;10387076;28;20226;-67
2023/06/30 14:23:19;;;;;;;32.88;29.48;;;22.80;99.90;;;24.16;75.79;97422.03;10383952;28;20237;-67
2023/06/30 14:28:23;;;;;;;31.45;28.10;;;23.00;99.90;;;24.42;74.45;97417.53;10378421;28;20264;-67
2023/06/30 14:33:27;;;;;;;33.00;29.58;;;23.30;99.90;;;24.69;71.33;97413.91;10379718;28;20252;-67
2023/06/30 14:38:30;;;;;;;32.50;29.02;;;23.40;99.90;;;24.46;71.08;97416.66;10376376;28;20228;-67
2023/06/30 14:43:34;;;;;;;33.95;30.25;;;23.50;99.90;;;24.14;71.65;97411.56;10377757;28;20237;-67
2023/06/30 14:48:37;;;;;;;33.97;28.95;;;23.10;99.90;;;23.73;70.58;97402.13;10381663;28;20631;-67
2023/06/30 14:53:40;;;;;;;34.22;30.63;;;22.70;99.90;;;23.49;72.28;97391.69;10385301;28;20241;-67
2023/06/30 14:58:49;;;;;;;30.55;27.35;;;22.60;99.90;;;23.67;74.25;97398.66;10388088;28;20222;-67
2023/06/30 15:03:52;;;;;;;31.27;28.05;;;22.70;99.90;;;24.10;70.74;97394.19;10383603;28;20260;-67
2023/06/30 15:08:55;;;;;;;33.63;30.02;;;23.10;99.90;;;23.99;72.02;97398.59;10384157;28;20303;-67
2023/06/30 15:14:00;;;;;;;33.67;30.13;;;23.10;99.90;;;24.28;71.41;97401.06;10376330;28;20230;-67
2023/06/30 15:19:03;;;;;;;32.35;29.05;;;23.20;99.90;;;24.03;72.62;97393.31;10386600;28;20222;-67
2023/06/30 15:24:07;;;;;;;31.52;28.35;;;23.10;99.90;;;23.89;74.14;97399.47;10394032;28;20225;-68
2023/06/30 15:29:12;;;;;;;33.65;30.08;;;22.90;99.90;;;23.61;74.12;97402.13;10403982;28;20233;-67
2023/06/30 15:34:15;;;;;;;35.17;30.23;;;22.60;99.90;;;23.24;76.68;97407.41;10397329;28;20287;-67
2023/06/30 15:39:18;;;;;;;35.13;31.33;;;22.30;99.90;;;22.59;89.77;97415.97;10385492;28;20225;-68
2023/06/30 15:44:23;;;;;;;38.85;34.65;;;21.90;99.90;;;22.27;97.11;97407.22;10384572;28;20229;-68
2023/06/30 15:49:26;;;;;;;41.72;36.55;;;21.50;99.90;;;21.81;100.00;97398.31;10383562;28;20705;-68
2023/06/30 15:54:29;;;;;;;39.58;35.30;;;21.10;99.90;;;21.73;100.00;97394.78;10383021;28;20655;-68
2023/06/30 15:59:34;;;;;;;36.72;32.90;;;21.00;99.90;;;21.52;100.00;97390.34;10383716;28;20232;-68
2023/06/30 16:04:38;;;;;;;41.15;35.50;;;20.80;99.90;;;21.38;100.00;97381.59;10394870;28;20235;-67
2023/06/30 16:09:41;;;;;;;40.33;34.67;;;20.70;99.90;;;21.31;100.00;97385.81;10399960;28;20234;-67
2023/06/30 16:14:45;;;;;;;40.45;35.10;;;20.60;99.90;;;21.26;100.00;97382.31;10403039;28;20226;-67
2023/06/30 16:19:49;;;;;;;41.40;35.33;;;20.50;99.90;;;21.29;100.00;97384.94;10397392;28;20225;-67
2023/06/30 16:24:52;;;;;;;39.33;34.92;;;20.50;99.90;;;21.21;100.00;97390.09;10399152;28;20240;-67
2023/06/30 16:30:22;;;;;;;40.67;35.55;;;20.50;99.90;;;21.37;100.00;97385.88;10399483;28;21681;-67
2023/06/30 16:35:27;;;;;;;39.38;35.05;;;20.70;99.90;;;21.49;100.00;97391.19;10399593;28;20288;-66
2023/06/30 16:40:31;;;;;;;40.80;35.60;;;20.70;99.90;;;21.63;100.00;97387.78;10389686;28;20275;-66
2023/06/30 16:45:35;;;;;;;37.65;33.63;;;20.90;99.90;;;21.64;100.00;97386.94;10402479;28;20240;-66
2023/06/30 16:50:39;;;;;;;37.05;32.70;;;20.90;99.90;;;21.74;100.00;97388.72;10385078;28;20237;-66
2023/06/30 16:55:42;;;;;;;39.05;34.72;;;21.00;99.90;;;21.77;100.00;97397.41;10390967;28;20727;-66
2023/06/30 17:00:47;;;;;;;38.10;34.00;;;21.00;99.90;;;21.77;100.00;97396.53;10391832;28;20229;-66
2023/06/30 17:05:50;;;;;;;35.28;31.40;;;21.00;99.90;;;21.61;100.00;97385.19;10396737;28;20716;-67
2023/06/30 17:10:55;;;;;;;39.92;35.63;;;20.80;99.90;;;21.47;100.00;97387.69;10382243;28;20229;-66
2023/06/30 17:15:59;;;;;;;36.55;32.38;;;20.60;99.90;;;21.48;100.00;97383.38;10392437;28;20308;-65
2023/06/30 17:21:03;;;;;;;39.45;34.97;;;20.70;99.90;;;21.47;100.00;97386.84;10388386;28;20230;-67
2023/06/30 17:26:06;;;;;;;36.10;31.55;;;20.70;99.90;;;21.47;100.00;97387.69;10387791;28;20221;-66
2023/06/30 17:31:14;;;;;;;31.95;28.55;;;20.80;99.90;;;21.58;100.00;97396.44;10387858;28;20321;-67
2023/06/30 17:36:18;;;;;;;30.70;27.38;;;20.80;99.90;;;21.59;100.00;97403.38;10393327;28;20232;-66
2023/06/30 17:41:21;;;;;;;29.88;26.60;;;20.80;99.90;;;21.66;95.44;97403.41;10387054;28;20782;-66
2023/06/30 17:46:26;;;;;;;28.90;24.63;;;20.80;99.90;;;21.68;96.01;97399.09;10395438;28;20562;-66
2023/06/30 17:51:29;;;;;;;26.13;23.35;;;20.80;99.90;;;21.65;94.47;97396.47;10387665;28;20388;-66
2023/06/30 17:56:32;;;;;;;30.27;25.88;;;20.80;99.90;;;21.49;95.62;97400.69;10392922;28;20221;-67
2023/06/30 18:01:37;;;;;;;29.25;26.00;;;20.70;99.90;;;21.37;98.50;97391.09;10391368;28;20788;-66
2023/06/30 18:07:00;;;;;;;29.15;25.80;;;20.50;99.90;;;21.33;100.00;97394.50;10391371;28;20229;-66
2023/06/30 18:12:05;;;;;;;27.38;24.27;;;20.50;99.90;;;21.28;100.00;97404.00;10389955;28;20259;-67
2023/06/30 18:17:10;;;;;;;29.58;26.15;;;20.40;99.90;;;21.20;100.00;97395.25;10389274;28;20229;-66
2023/06/30 18:22:14;;;;;;;30.35;27.13;;;20.30;99.90;;;21.18;100.00;97404.81;10386953;28;20555;-66
2023/06/30 18:27:17;;;;;;;28.52;24.63;;;20.30;99.90;;;21.13;100.00;97396.97;10387326;28;20859;-66
2023/06/30 18:32:21;;;;;;;30.38;26.25;;;20.20;99.90;;;21.07;100.00;97402.09;10384593;28;20233;-67
2023/06/30 18:37:24;;;;;;;29.77;25.73;;;20.20;99.90;;;21.10;100.00;97416.00;10387126;28;20230;-67
2023/06/30 18:42:27;;;;;;;29.27;25.13;;;20.10;99.90;;;21.07;100.00;97415.97;10386588;28;20230;-67
2023/06/30 18:47:32;;;;;;;29.27;25.23;;;20.20;99.90;;;21.05;100.00;97420.28;10383500;28;20225;-66
2023/06/30 18:52:35;;;;;;;28.25;25.17;;;20.20;99.90;;;21.02;100.00;97424.59;10384016;28;20234;-66
2023/06/30 18:57:39;;;;;;;29.27;26.00;;;20.10;99.90;;;21.09;100.00;97423.78;10386245;28;20222;-67
2023/06/30 19:02:43;;;;;;;30.58;26.20;;;20.10;99.90;;;20.96;100.00;97425.41;10386753;28;20236;-66
2023/06/30 19:07:47;;;;;;;28.15;24.90;;;20.00;99.90;;;20.91;100.00;97429.69;10388563;28;20221;-66
2023/06/30 19:12:50;;;;;;;31.33;24.73;;;20.00;99.90;;;20.88;100.00;97438.31;10390607;28;20232;-67
2023/06/30 19:17:55;;;;;;;29.60;26.05;;;20.00;99.90;;;20.86;100.00;97444.34;10391792;28;20244;-66
2023/06/30 19:22:58;;;;;;;26.85;23.73;;;19.90;99.90;;;20.89;100.00;97449.59;10389030;28;20229;-66
2023/06/30 19:28:01;;;;;;;27.50;24.52;;;19.90;99.90;;;20.95;100.00;97460.03;10397421;28;20230;-66
2023/06/30 19:33:06;;;;;;;31.73;25.52;;;19.90;99.90;;;20.76;100.00;97460.72;10400099;28;20704;-66
2023/06/30 19:38:10;;;;;;;28.00;24.15;;;19.80;99.90;;;20.68;100.00;97466.69;10395759;28;20226;-66
2023/06/30 19:43:13;;;;;;;29.27;25.60;;;19.70;99.90;;;20.60;100.00;97465.75;10393077;28;20233;-66
2023/06/30 19:48:18;;;;;;;29.95;24.73;;;19.70;99.90;;;20.56;100.00;97476.94;10392424;28;20230;-66
2023/06/30 19:53:22;;;;;;;26.23;23.45;;;19.60;99.90;;;20.50;100.00;97476.84;10395152;28;20233;-66
2023/06/30 19:58:25;;;;;;;28.10;24.10;;;19.60;99.90;;;20.50;100.00;97486.38;10397490;28;20726;-67
2023/06/30 20:03:29;;;;;;;27.25;23.42;;;19.60;99.90;;;20.48;100.00;97487.19;10403461;28;20232;-66
2023/06/30 20:08:32;;;;;;;29.08;23.63;;;19.50;99.90;;;20.42;100.00;97492.31;10398844;28;20222;-66
2023/06/30 20:13:35;;;;;;;28.08;25.10;;;19.50;99.90;;;20.31;100.00;97496.50;10404582;28;20238;-67
2023/06/30 20:18:40;;;;;;;28.10;23.15;;;19.40;99.90;;;20.24;100.00;97490.38;10394411;28;20222;-67
2023/06/30 20:23:43;;;;;;;27.90;23.13;;;19.30;99.90;;;20.22;100.00;97492.06;10401436;28;20305;-67
2023/06/30 20:28:46;;;;;;;25.77;22.98;;;19.30;99.90;;;20.18;100.00;97498.09;10401819;28;20701;-66
2023/06/30 20:33:50;;;;;;;26.92;24.02;;;19.30;99.90;;;20.17;100.00;97501.53;10400924;28;20246;-67
2023/06/30 20:38:58;;;;;;;26.27;23.58;;;19.30;99.90;;;20.16;100.00;97497.19;10400097;28;20748;-67
2023/06/30 20:44:01;;;;;;;27.17;23.10;;;19.30;99.90;;;20.10;100.00;97497.09;10401023;28;20225;-67